Time;durP1;ratioP1;P1;durP2;ratioP2;P2;SDS_P1;SDS_P2;PMS_P1;PMS_P2;Temp;Humidity;BMP_temperature;BMP_pressure;BME280_temperature;BME280_humidity;BME280_pressure;Samples;Min_cycle;Max_cycle;Signal;HPM_P1;HPM_P2
2022/01/19 00:00:28;;;;;;;37.60;18.83;;;4.20;89.30;;;;;;5041122;28;20463;-48
2022/01/19 00:02:55;;;;;;;35.05;19.27;;;4.10;89.20;;;;;;5034020;28;20037;-48
2022/01/19 00:05:21;;;;;;;34.85;19.10;;;4.20;89.40;;;;;;5021838;28;20455;-46
2022/01/19 00:07:47;;;;;;;33.70;19.92;;;4.20;89.30;;;;;;5030100;28;20033;-46
2022/01/19 00:10:16;;;;;;;33.85;19.42;;;4.20;89.30;;;;;;5024600;28;20048;-46
2022/01/19 00:12:43;;;;;;;35.45;18.52;;;4.20;89.10;;;;;;5032884;28;20025;-45
2022/01/19 00:15:10;;;;;;;35.03;19.63;;;4.10;89.10;;;;;;5033806;28;20030;-46
2022/01/19 00:17:36;;;;;;;32.58;17.70;;;4.10;89.10;;;;;;5033728;28;20803;-46
2022/01/19 00:20:02;;;;;;;33.20;20.83;;;4.10;89.20;;;;;;5034265;28;20116;-47
2022/01/19 00:22:27;;;;;;;35.67;18.17;;;4.10;89.20;;;;;;5031964;28;20021;-46
2022/01/19 00:24:53;;;;;;;34.95;18.80;;;4.10;89.30;;;;;;5033682;28;20510;-46
2022/01/19 00:27:19;;;;;;;33.15;19.48;;;4.10;89.40;;;;;;5033671;28;20037;-46
2022/01/19 00:29:44;;;;;;;35.15;18.25;;;4.10;89.40;;;;;;5033560;28;20029;-49
2022/01/19 00:32:10;;;;;;;38.67;21.00;;;4.20;89.20;;;;;;5032779;28;20129;-48
2022/01/19 00:34:35;;;;;;;35.85;19.40;;;4.10;89.40;;;;;;5033607;28;20351;-46
2022/01/19 00:37:01;;;;;;;41.58;20.90;;;4.20;89.30;;;;;;5033901;28;20102;-46
2022/01/19 00:39:31;;;;;;;35.78;20.00;;;4.10;89.20;;;;;;5032962;28;21355;-46
2022/01/19 00:41:57;;;;;;;;;;;4.10;89.20;;;;;;5033796;28;20065;-46
2022/01/19 00:44:25;;;;;;;32.92;17.98;;;4.00;89.20;;;;;;5032883;28;19928;-47
2022/01/19 00:46:50;;;;;;;36.03;20.10;;;4.10;89.20;;;;;;5033276;28;20116;-47
2022/01/19 00:49:16;;;;;;;33.85;18.63;;;4.10;89.10;;;;;;5032530;28;20388;-46
2022/01/19 00:51:41;;;;;;;36.30;19.60;;;4.10;89.10;;;;;;5033231;28;20026;-46
2022/01/19 00:54:07;;;;;;;45.33;21.20;;;4.10;89.20;;;;;;5033753;28;20367;-47
2022/01/19 00:56:36;;;;;;;36.00;19.92;;;4.10;89.20;;;;;;5033368;28;20450;-48
2022/01/19 00:59:04;;;;;;;39.00;20.40;;;4.00;89.20;;;;;;5014802;28;20034;-45
2022/01/19 01:01:30;;;;;;;33.83;17.83;;;4.10;89.40;;;;;;5033526;28;20037;-44
2022/01/19 01:03:55;;;;;;;39.72;20.15;;;4.20;89.40;;;;;;5033035;28;20327;-45
2022/01/19 01:06:21;;;;;;;37.00;20.08;;;4.10;89.30;;;;;;5033504;28;20160;-46
2022/01/19 01:08:47;;;;;;;36.20;18.77;;;4.10;89.30;;;;;;5033339;28;20037;-48
2022/01/19 01:11:13;;;;;;;40.95;22.65;;;4.00;89.40;;;;;;5032277;28;20508;-47
2022/01/19 01:16:36;;;;;;;39.45;19.52;;;4.00;89.50;;;;;;5033238;28;20059;-45
2022/01/19 01:19:03;;;;;;;;;;;4.00;89.60;;;;;;5027096;28;20095;-46
2022/01/19 01:21:29;;;;;;;44.42;19.23;;;4.00;89.70;;;;;;5032178;28;19916;-49
2022/01/19 01:23:54;;;;;;;35.63;19.63;;;4.10;89.70;;;;;;5032113;28;20029;-47
2022/01/19 01:26:20;;;;;;;37.92;19.42;;;4.10;89.50;;;;;;5031633;28;20332;-45
2022/01/19 01:28:46;;;;;;;39.75;20.75;;;4.00;89.40;;;;;;5032803;28;20079;-45
2022/01/19 01:31:12;;;;;;;35.30;18.77;;;4.00;89.50;;;;;;5033233;28;20041;-46
2022/01/19 01:33:39;;;;;;;42.20;20.95;;;4.00;89.60;;;;;;5035276;28;20037;-44
2022/01/19 01:36:05;;;;;;;42.63;20.17;;;4.00;89.70;;;;;;5037272;28;20029;-49
2022/01/19 01:38:30;;;;;;;39.83;19.70;;;3.90;89.70;;;;;;5036982;28;20352;-48
2022/01/19 01:40:56;;;;;;;35.10;20.02;;;4.00;89.80;;;;;;5036603;28;20044;-48
2022/01/19 01:43:25;;;;;;;41.85;20.85;;;4.00;89.70;;;;;;5036707;28;20046;-46
2022/01/19 01:45:55;;;;;;;39.97;22.17;;;3.90;89.60;;;;;;5037379;28;20034;-45
2022/01/19 01:48:25;;;;;;;44.50;23.63;;;3.90;89.70;;;;;;5036189;28;20435;-45
2022/01/19 01:53:37;;;;;;;42.08;20.73;;;3.90;89.70;;;;;;5035856;28;20036;-45
2022/01/19 01:56:09;;;;;;;42.97;21.15;;;3.90;89.80;;;;;;5036188;28;20393;-45
2022/01/19 01:58:46;;;;;;;44.08;22.13;;;3.90;89.60;;;;;;5035681;28;20037;-45
2022/01/19 02:01:12;;;;;;;42.53;21.33;;;3.90;89.80;;;;;;5034035;28;20167;-45
2022/01/19 02:03:39;;;;;;;41.17;22.45;;;3.90;89.90;;;;;;5035314;28;20104;-47
2022/01/19 02:06:22;;;;;;;40.42;21.98;;;3.90;89.90;;;;;;5035633;28;20030;-48
2022/01/19 02:09:13;;;;;;;41.10;20.70;;;3.90;89.90;;;;;;5034483;28;20048;-48
2022/01/19 02:23:08;;;;;;;44.28;22.42;;;3.80;90.10;;;;;;5034810;28;20044;-46
2022/01/19 02:25:39;;;;;;;47.75;23.55;;;3.90;90.20;;;;;;5035878;28;20025;-48
2022/01/19 02:41:37;;;;;;;37.35;20.20;;;3.90;90.20;;;;;;5032496;28;20065;-46
2022/01/19 02:44:03;;;;;;;49.17;24.05;;;3.90;90.30;;;;;;5035067;28;20057;-45
2022/01/19 02:46:52;;;;;;;41.10;21.00;;;3.90;90.40;;;;;;5035198;28;20084;-45
2022/01/19 02:49:20;;;;;;;44.97;21.02;;;3.90;90.40;;;;;;5035594;28;20029;-47
2022/01/19 02:51:53;;;;;;;40.08;20.23;;;3.90;90.40;;;;;;5035445;28;20037;-45
2022/01/19 02:54:22;;;;;;;44.45;21.77;;;3.90;90.40;;;;;;5035391;28;20086;-45
2022/01/19 02:56:52;;;;;;;42.80;21.10;;;3.90;90.40;;;;;;5036579;28;20053;-46
2022/01/19 02:59:24;;;;;;;;;;;3.90;90.40;;;;;;5052113;28;20040;-46
2022/01/19 03:10:03;;;;;;;35.65;18.85;;;3.80;90.40;;;;;;5035512;28;20049;-45
2022/01/19 03:12:29;;;;;;;37.42;19.05;;;3.80;90.30;;;;;;5034943;28;20033;-45
2022/01/19 03:14:55;;;;;;;34.55;19.15;;;3.70;90.40;;;;;;5033217;28;20261;-45
2022/01/19 03:17:20;;;;;;;38.33;17.50;;;3.70;90.40;;;;;;5034652;28;20109;-45
2022/01/19 03:19:46;;;;;;;35.33;17.50;;;3.70;90.40;;;;;;5017334;28;20354;-45
2022/01/19 03:22:12;;;;;;;38.00;17.15;;;3.70;90.40;;;;;;5034572;28;20048;-45
2022/01/19 03:24:39;;;;;;;31.75;17.38;;;3.70;90.60;;;;;;5034301;28;20030;-45
2022/01/19 03:27:06;;;;;;;37.90;17.42;;;3.70;90.60;;;;;;5034755;28;20416;-47
2022/01/19 03:29:31;;;;;;;33.47;16.80;;;3.70;90.60;;;;;;5034192;28;20140;-46
2022/01/19 03:31:57;;;;;;;34.85;18.95;;;3.70;90.60;;;;;;5034477;28;20547;-45
2022/01/19 03:34:23;;;;;;;38.42;18.80;;;3.70;90.70;;;;;;5034491;28;20358;-45
2022/01/19 03:36:48;;;;;;;34.45;17.00;;;3.70;90.60;;;;;;5033939;28;20382;-46
2022/01/19 03:39:14;;;;;;;40.70;18.02;;;3.70;90.50;;;;;;5034626;28;20029;-46
2022/01/19 03:41:39;;;;;;;38.78;17.83;;;3.70;90.60;;;;;;5034650;28;20041;-46
2022/01/19 03:44:05;;;;;;;35.88;16.75;;;3.70;90.60;;;;;;5034398;28;20057;-47
2022/01/19 03:46:34;;;;;;;37.65;18.17;;;3.60;90.40;;;;;;5033741;28;20030;-45
2022/01/19 03:49:10;;;;;;;38.50;17.98;;;3.60;90.60;;;;;;5034507;28;20037;-46
2022/01/19 03:51:36;;;;;;;36.65;17.02;;;3.60;90.70;;;;;;5034400;28;20029;-45
2022/01/19 03:54:02;;;;;;;41.50;17.85;;;3.60;90.80;;;;;;5033630;28;20355;-47
2022/01/19 03:56:28;;;;;;;36.65;15.88;;;3.60;90.70;;;;;;5034296;28;20027;-46
2022/01/19 03:58:53;;;;;;;34.03;16.63;;;3.60;90.90;;;;;;5052994;28;20037;-47
2022/01/19 04:01:19;;;;;;;34.17;16.63;;;3.60;90.80;;;;;;5035338;28;20359;-45
2022/01/19 04:06:26;;;;;;;36.33;17.38;;;3.50;90.80;;;;;;5033984;28;20126;-46
2022/01/19 04:08:52;;;;;;;35.60;15.50;;;3.50;90.90;;;;;;5034207;28;20120;-46
2022/01/19 04:11:20;;;;;;;36.08;17.20;;;3.50;90.90;;;;;;5034165;28;20231;-45
2022/01/19 04:16:24;;;;;;;39.30;17.67;;;3.50;90.90;;;;;;5024495;28;20030;-46
2022/01/19 04:18:56;;;;;;;42.67;17.13;;;3.50;91.10;;;;;;5033129;28;20029;-46
2022/01/19 04:21:21;;;;;;;34.65;15.23;;;3.50;91.00;;;;;;5034062;28;20048;-44
2022/01/19 04:23:48;;;;;;;35.65;16.42;;;3.60;91.10;;;;;;5034009;28;20471;-47
2022/01/19 04:26:14;;;;;;;36.50;17.70;;;3.60;90.90;;;;;;5013346;28;20484;-46
2022/01/19 04:28:40;;;;;;;34.17;15.63;;;3.50;90.90;;;;;;5018410;28;20068;-45
2022/01/19 04:31:05;;;;;;;38.10;17.15;;;3.60;91.10;;;;;;5033867;28;20348;-47
2022/01/19 04:33:31;;;;;;;35.75;16.23;;;3.60;91.00;;;;;;5032932;28;20029;-45
2022/01/19 04:36:18;;;;;;;37.25;16.08;;;3.60;91.10;;;;;;5038159;28;20123;-44
2022/01/19 04:39:20;;;;;;;38.22;18.27;;;3.50;91.10;;;;;;5033470;28;20029;-47
2022/01/19 04:44:37;;;;;;;42.40;18.38;;;3.50;91.20;;;;;;5033649;28;20064;-45
2022/01/19 05:03:56;;;;;;;45.47;21.40;;;3.70;91.60;;;;;;5033165;28;20036;-46
2022/01/19 05:06:13;;;;;;;52.20;21.90;;;3.70;91.60;;;;;;5031726;28;20494;-47
2022/01/19 05:09:04;;;;;;;53.30;22.65;;;3.70;91.50;;;;;;5032379;28;20045;-45
2022/01/19 05:14:14;;;;;;;54.85;26.63;;;3.80;91.70;;;;;;5025450;28;20504;-46
2022/01/19 05:16:40;;;;;;;55.60;25.77;;;3.80;91.70;;;;;;5032571;28;20033;-45
2022/01/19 05:19:05;;;;;;;56.58;25.58;;;3.80;91.70;;;;;;5033271;28;20042;-46
2022/01/19 05:21:31;;;;;;;64.03;27.40;;;3.80;91.80;;;;;;5031394;28;20025;-45
2022/01/19 05:23:56;;;;;;;62.17;26.45;;;3.90;91.80;;;;;;5032781;28;20042;-45
2022/01/19 05:26:22;;;;;;;64.82;27.05;;;3.90;91.80;;;;;;5033010;28;20038;-45
2022/01/19 05:28:48;;;;;;;60.08;25.55;;;3.90;91.70;;;;;;5032994;28;20030;-46
2022/01/19 05:31:14;;;;;;;60.55;26.55;;;3.90;91.70;;;;;;5033239;28;20053;-48
2022/01/19 05:33:39;;;;;;;62.22;29.13;;;4.00;91.80;;;;;;5032598;28;20033;-49
2022/01/19 05:36:07;;;;;;;58.55;25.90;;;4.00;91.70;;;;;;5032788;28;20037;-45
2022/01/19 05:38:33;;;;;;;66.88;29.65;;;4.00;91.70;;;;;;5032759;28;20037;-48
2022/01/19 05:41:01;;;;;;;64.00;29.35;;;4.00;91.60;;;;;;5032733;28;20036;-45
2022/01/19 05:43:28;;;;;;;58.55;27.02;;;4.00;91.70;;;;;;5015777;28;20064;-45
2022/01/19 05:45:54;;;;;;;65.47;28.73;;;4.10;91.60;;;;;;5032294;28;20033;-45
2022/01/19 05:48:20;;;;;;;60.17;29.30;;;4.10;91.60;;;;;;5045419;28;20025;-45
2022/01/19 05:50:45;;;;;;;66.70;29.25;;;4.10;91.60;;;;;;5032539;28;20042;-45
2022/01/19 05:53:13;;;;;;;65.03;27.63;;;4.20;91.60;;;;;;5032657;28;20040;-48
2022/01/19 05:55:38;;;;;;;63.70;27.85;;;4.20;91.50;;;;;;5031618;28;20029;-45
2022/01/19 05:58:06;;;;;;;70.70;29.20;;;4.20;91.50;;;;;;5032932;28;20358;-45
2022/01/19 06:00:32;;;;;;;59.20;28.50;;;4.20;91.50;;;;;;5032359;28;20104;-45
2022/01/19 06:03:00;;;;;;;61.42;27.35;;;4.20;91.40;;;;;;5031854;28;20105;-47
2022/01/19 06:05:25;;;;;;;60.13;28.20;;;4.20;91.30;;;;;;5032365;28;20041;-49
2022/01/19 06:08:08;;;;;;;58.05;27.55;;;4.30;91.30;;;;;;5032332;28;20045;-45
2022/01/19 06:10:43;;;;;;;55.78;25.67;;;4.20;91.20;;;;;;5031128;28;20022;-45
2022/01/19 06:13:11;;;;;;;56.33;27.90;;;4.30;91.20;;;;;;5031951;28;20124;-46
2022/01/19 06:15:37;;;;;;;63.33;28.50;;;4.30;91.10;;;;;;5032630;28;20053;-45
2022/01/19 06:18:03;;;;;;;54.50;29.08;;;4.30;91.10;;;;;;5032431;28;20068;-45
2022/01/19 06:20:28;;;;;;;61.22;31.10;;;4.30;91.00;;;;;;5034092;28;20049;-45
2022/01/19 06:22:54;;;;;;;59.38;29.70;;;4.30;91.00;;;;;;5035763;28;20124;-47
2022/01/19 06:25:20;;;;;;;56.67;29.70;;;4.30;90.90;;;;;;5033885;28;20435;-45
2022/01/19 06:27:48;;;;;;;58.33;30.80;;;4.40;90.90;;;;;;5035657;28;20037;-47
2022/01/19 06:30:14;;;;;;;60.20;30.45;;;4.30;90.80;;;;;;5032414;28;20032;-46
2022/01/19 06:32:40;;;;;;;51.58;28.10;;;4.30;90.80;;;;;;5035746;28;20427;-45
2022/01/19 06:35:07;;;;;;;56.20;28.23;;;4.40;90.90;;;;;;5034996;28;20112;-47
2022/01/19 06:37:33;;;;;;;57.22;30.33;;;4.40;90.90;;;;;;5034380;28;20382;-45
2022/01/19 06:39:58;;;;;;;55.60;28.52;;;4.40;90.90;;;;;;5034854;28;20037;-46
2022/01/19 06:42:24;;;;;;;52.28;28.83;;;4.40;90.90;;;;;;5034211;28;20056;-45
2022/01/19 06:44:52;;;;;;;53.60;28.60;;;4.40;90.80;;;;;;5033821;28;20040;-48
2022/01/19 06:47:18;;;;;;;53.75;30.40;;;4.40;90.70;;;;;;5034067;28;20032;-45
2022/01/19 06:49:46;;;;;;;56.53;29.48;;;4.40;90.70;;;;;;5033569;28;20037;-46
2022/01/19 06:52:11;;;;;;;53.72;28.83;;;4.40;90.70;;;;;;5033962;28;20040;-46
2022/01/19 06:54:37;;;;;;;50.42;28.40;;;4.40;90.60;;;;;;5033940;28;20447;-45
2022/01/19 06:57:03;;;;;;;57.10;30.35;;;4.50;90.50;;;;;;5035419;28;20105;-45
2022/01/19 06:59:31;;;;;;;47.72;29.05;;;4.50;90.30;;;;;;5034227;28;20025;-45
2022/01/19 07:01:56;;;;;;;57.63;29.35;;;4.50;90.20;;;;;;5033522;28;20450;-46
2022/01/19 07:04:25;;;;;;;52.95;28.98;;;4.50;90.10;;;;;;5033745;28;20037;-47
2022/01/19 07:06:50;;;;;;;52.35;29.75;;;4.50;90.10;;;;;;5034694;28;20028;-48
2022/01/19 07:09:16;;;;;;;57.65;30.38;;;4.50;90.10;;;;;;5034697;28;20104;-45
2022/01/19 07:11:41;;;;;;;55.80;29.92;;;4.60;90.10;;;;;;5017453;28;20025;-46
2022/01/19 07:14:08;;;;;;;56.55;30.40;;;4.50;90.00;;;;;;5033862;28;20105;-45
2022/01/19 07:16:34;;;;;;;52.45;29.60;;;4.60;90.00;;;;;;5034009;28;20112;-46
2022/01/19 07:19:02;;;;;;;59.28;31.67;;;4.60;90.00;;;;;;5034647;28;20160;-45
2022/01/19 07:21:30;;;;;;;58.13;31.35;;;4.60;90.10;;;;;;5034904;28;20435;-50
2022/01/19 07:23:56;;;;;;;57.63;31.30;;;4.60;90.00;;;;;;5034968;28;20427;-47
2022/01/19 07:26:22;;;;;;;55.60;30.17;;;4.60;90.10;;;;;;5033675;28;20125;-45
2022/01/19 07:28:48;;;;;;;58.50;32.60;;;4.60;90.10;;;;;;5034924;28;20344;-45
2022/01/19 07:31:14;;;;;;;56.47;32.05;;;4.60;90.00;;;;;;5030959;28;20088;-45
2022/01/19 07:33:39;;;;;;;73.78;33.45;;;4.60;90.00;;;;;;5021481;28;20045;-45
2022/01/19 07:36:05;;;;;;;61.83;31.92;;;4.60;90.10;;;;;;5034917;28;20045;-45
2022/01/19 07:38:36;;;;;;;63.55;32.70;;;4.60;90.00;;;;;;5033935;28;20220;-48
2022/01/19 07:41:01;;;;;;;57.38;32.08;;;4.60;90.10;;;;;;5034492;28;20033;-45
2022/01/19 07:43:27;;;;;;;61.63;32.80;;;4.70;90.10;;;;;;5034764;28;20111;-45
2022/01/19 07:45:52;;;;;;;61.25;31.75;;;4.70;90.10;;;;;;5033281;28;20053;-47
2022/01/19 07:48:18;;;;;;;70.53;34.95;;;4.70;90.00;;;;;;5034689;28;20041;-45
2022/01/19 07:50:44;;;;;;;57.22;32.15;;;4.70;90.00;;;;;;5034378;28;20033;-46
2022/01/19 07:53:10;;;;;;;64.13;33.47;;;4.70;90.00;;;;;;5033348;28;20036;-46
2022/01/19 07:55:35;;;;;;;57.65;31.25;;;4.70;90.00;;;;;;5033923;28;20041;-46
2022/01/19 07:58:01;;;;;;;58.40;33.50;;;4.60;89.80;;;;;;5034083;28;20036;-45
2022/01/19 08:00:28;;;;;;;59.00;33.40;;;4.70;90.00;;;;;;5030338;28;20029;-47
2022/01/19 08:02:53;;;;;;;59.60;33.80;;;4.70;89.90;;;;;;5039481;28;20121;-46
2022/01/19 08:05:19;;;;;;;54.80;32.05;;;4.70;89.90;;;;;;5031926;28;20124;-48
2022/01/19 08:07:46;;;;;;;55.10;32.35;;;4.80;89.80;;;;;;5033207;28;20048;-50
2022/01/19 08:10:14;;;;;;;65.95;31.98;;;4.70;89.70;;;;;;5032842;28;20030;-47
2022/01/19 08:12:39;;;;;;;61.58;33.33;;;4.70;89.70;;;;;;5026464;28;20037;-47
2022/01/19 08:15:06;;;;;;;64.43;32.30;;;4.70;89.80;;;;;;5033041;28;20041;-49
2022/01/19 08:17:33;;;;;;;61.45;32.95;;;4.70;89.70;;;;;;5032723;28;20109;-45
2022/01/19 08:19:59;;;;;;;63.15;32.45;;;4.70;89.70;;;;;;5033053;28;20112;-48
2022/01/19 08:22:24;;;;;;;55.35;32.08;;;4.70;89.70;;;;;;5032830;28;20104;-45
2022/01/19 08:24:53;;;;;;;60.72;34.65;;;4.70;89.70;;;;;;5032340;28;20091;-46
2022/01/19 08:27:19;;;;;;;56.67;33.65;;;4.70;89.60;;;;;;5033643;28;20608;-45
2022/01/19 08:29:44;;;;;;;63.35;32.70;;;4.80;89.70;;;;;;5032590;28;20032;-50
2022/01/19 08:32:10;;;;;;;61.00;33.47;;;4.80;89.60;;;;;;5032913;28;20069;-52
2022/01/19 08:34:36;;;;;;;59.50;33.10;;;4.80;89.50;;;;;;5032326;28;20045;-49
2022/01/19 08:37:02;;;;;;;59.72;34.13;;;4.90;89.40;;;;;;5033197;28;20040;-49
2022/01/19 08:39:28;;;;;;;63.60;34.35;;;4.80;89.30;;;;;;5027292;28;20068;-48
2022/01/19 08:41:56;;;;;;;61.08;35.08;;;4.80;89.40;;;;;;5032293;28;20041;-48
2022/01/19 08:44:22;;;;;;;61.05;32.70;;;4.90;89.30;;;;;;5032162;28;20183;-49
2022/01/19 08:46:51;;;;;;;53.60;32.30;;;4.90;89.20;;;;;;5031501;28;20033;-46
2022/01/19 08:49:16;;;;;;;55.85;33.17;;;4.90;89.10;;;;;;5031835;28;20037;-48
2022/01/19 08:51:42;;;;;;;58.42;34.33;;;4.90;89.10;;;;;;5033145;28;20035;-46
2022/01/19 08:54:08;;;;;;;60.05;33.95;;;4.90;89.20;;;;;;5032363;28;20033;-47
2022/01/19 08:56:34;;;;;;;64.85;33.17;;;4.90;89.10;;;;;;5030867;28;20128;-47
2022/01/19 08:59:03;;;;;;;75.30;33.83;;;4.90;89.00;;;;;;5026816;28;20100;-44
2022/01/19 09:01:28;;;;;;;60.78;32.75;;;5.00;89.00;;;;;;5031821;28;20025;-45
2022/01/19 09:03:54;;;;;;;65.60;37.30;;;5.00;88.90;;;;;;5014950;28;20440;-45
2022/01/19 09:06:20;;;;;;;63.55;33.83;;;5.00;88.80;;;;;;5032381;28;20406;-47
2022/01/19 09:08:48;;;;;;;62.22;34.45;;;4.90;88.70;;;;;;5031999;28;20037;-49
2022/01/19 09:11:13;;;;;;;64.28;37.05;;;5.00;88.80;;;;;;5031681;28;20033;-45
2022/01/19 09:13:39;;;;;;;70.40;35.97;;;5.00;88.70;;;;;;5032490;28;20029;-45
2022/01/19 09:16:07;;;;;;;66.60;36.05;;;5.00;88.70;;;;;;5031932;28;20025;-47
2022/01/19 09:18:33;;;;;;;67.63;36.13;;;5.00;88.60;;;;;;5032612;28;20045;-47
2022/01/19 09:21:03;;;;;;;74.05;39.80;;;5.00;88.60;;;;;;5032365;28;20029;-46
2022/01/19 09:23:30;;;;;;;60.97;37.67;;;5.00;88.70;;;;;;5032871;28;20516;-47
2022/01/19 09:25:56;;;;;;;63.08;35.53;;;5.00;88.60;;;;;;5032253;28;20056;-48
2022/01/19 09:28:24;;;;;;;65.28;36.08;;;5.00;88.60;;;;;;5032642;28;20575;-49
2022/01/19 09:30:50;;;;;;;67.90;38.58;;;5.00;88.40;;;;;;5031365;28;20049;-47
2022/01/19 09:33:19;;;;;;;62.25;39.00;;;5.00;88.40;;;;;;5032155;28;20083;-46
2022/01/19 09:38:27;;;;;;;59.25;35.72;;;5.00;88.10;;;;;;5031395;28;20059;-46
2022/01/19 09:40:55;;;;;;;64.85;39.17;;;4.90;87.90;;;;;;5031163;28;20498;-49
2022/01/19 09:43:22;;;;;;;58.55;36.67;;;4.90;87.70;;;;;;5032551;28;20136;-49
2022/01/19 09:45:54;;;;;;;57.10;36.75;;;4.90;87.80;;;;;;5032023;28;20395;-47
2022/01/19 09:48:20;;;;;;;63.45;39.03;;;4.80;87.90;;;;;;5031526;28;20542;-50
2022/01/19 09:50:48;;;;;;;51.83;35.47;;;4.90;87.80;;;;;;5031130;28;20108;-47
2022/01/19 09:53:14;;;;;;;55.60;35.33;;;5.00;87.80;;;;;;5031862;28;20029;-49
2022/01/19 09:55:40;;;;;;;65.65;36.10;;;5.00;87.60;;;;;;5035492;28;20030;-50
2022/01/19 09:58:08;;;;;;;55.28;34.22;;;5.00;87.30;;;;;;5033488;28;20099;-48
2022/01/19 10:00:34;;;;;;;52.60;33.65;;;5.00;86.80;;;;;;5034237;28;20030;-47
2022/01/19 10:03:13;;;;;;;50.53;34.50;;;4.90;86.90;;;;;;5035183;28;20048;-47
2022/01/19 10:06:03;;;;;;;48.08;35.00;;;4.90;86.80;;;;;;5034723;28;20351;-47
2022/01/19 10:08:36;;;;;;;49.97;32.05;;;5.00;86.90;;;;;;5030563;28;20036;-51
2022/01/19 10:16:58;;;;;;;48.83;33.95;;;5.10;86.90;;;;;;5035000;28;20024;-48
2022/01/19 10:17:04;;;;;;;53.28;32.25;;;5.20;86.30;;;;;;5034848;28;20102;-50
2022/01/19 10:19:37;;;;;;;43.08;31.02;;;5.30;86.20;;;;;;5034862;28;20025;-47
2022/01/19 10:22:16;;;;;;;43.38;30.52;;;5.40;86.10;;;;;;5034616;28;20075;-48
2022/01/19 10:24:56;;;;;;;44.00;31.33;;;5.40;85.80;;;;;;5035748;28;20320;-49
2022/01/19 10:27:42;;;;;;;47.40;33.53;;;5.40;85.90;;;;;;5034843;28;20040;-47
2022/01/19 10:30:08;;;;;;;42.17;30.35;;;5.50;85.80;;;;;;5034250;28;20065;-49
2022/01/19 10:32:46;;;;;;;40.28;29.92;;;5.40;85.60;;;;;;5034624;28;20112;-48
2022/01/19 10:35:16;;;;;;;47.60;31.35;;;5.40;85.80;;;;;;5035203;28;20041;-48
2022/01/19 10:37:42;;;;;;;44.72;31.30;;;5.40;85.80;;;;;;5019251;28;20025;-46
2022/01/19 10:40:17;;;;;;;49.25;32.40;;;5.30;85.70;;;;;;5035689;28;20115;-48
2022/01/19 10:42:47;;;;;;;43.67;31.73;;;5.30;85.80;;;;;;5034955;28;20034;-49
2022/01/19 10:45:16;;;;;;;;;;;5.30;85.80;;;;;;5034521;28;20039;-47
2022/01/19 10:47:47;;;;;;;47.42;32.33;;;5.30;85.90;;;;;;5034760;28;19913;-49
2022/01/19 10:50:19;;;;;;;45.05;31.40;;;5.40;85.90;;;;;;5035253;28;20100;-44
2022/01/19 10:52:47;;;;;;;40.90;31.05;;;5.40;85.70;;;;;;5033960;28;20083;-46
2022/01/19 10:55:19;;;;;;;47.35;32.33;;;5.50;85.40;;;;;;5034864;28;20059;-45
2022/01/19 10:57:46;;;;;;;48.30;31.77;;;5.50;85.30;;;;;;5031976;28;20351;-46
2022/01/19 11:00:21;;;;;;;42.88;29.83;;;5.50;85.30;;;;;;5034319;28;20149;-45
2022/01/19 11:02:49;;;;;;;40.80;29.17;;;5.50;85.60;;;;;;5031839;28;20040;-47
2022/01/19 11:05:16;;;;;;;45.63;30.73;;;5.50;85.30;;;;;;5034012;28;20436;-47
2022/01/19 11:07:42;;;;;;;39.58;28.08;;;5.50;85.20;;;;;;5034140;28;20336;-45
2022/01/19 11:12:43;;;;;;;44.20;30.00;;;5.40;85.20;;;;;;5034971;28;20103;-49
2022/01/19 11:15:10;;;;;;;46.72;31.45;;;5.40;85.30;;;;;;5033308;28;20022;-46
2022/01/19 11:17:36;;;;;;;45.30;30.42;;;5.50;85.30;;;;;;5033305;28;20101;-49
2022/01/19 11:20:09;;;;;;;43.97;30.38;;;5.40;85.20;;;;;;5034585;28;20045;-45
2022/01/19 11:22:53;;;;;;;43.92;29.98;;;5.50;85.20;;;;;;5017748;28;20037;-45
2022/01/19 11:25:48;;;;;;;41.92;29.00;;;5.50;85.10;;;;;;5034510;28;20722;-44
2022/01/19 11:28:34;;;;;;;43.90;29.13;;;5.50;85.20;;;;;;5034115;28;20037;-49
2022/01/19 11:31:03;;;;;;;42.83;29.20;;;5.50;85.20;;;;;;5033296;28;20044;-47
2022/01/19 11:33:30;;;;;;;;;;;5.50;85.10;;;;;;5034604;28;20025;-47
2022/01/19 11:36:03;;;;;;;40.28;29.40;;;5.50;85.20;;;;;;5029954;28;19920;-46
2022/01/19 11:38:37;;;;;;;40.72;28.50;;;5.50;85.00;;;;;;5031052;28;20087;-46
2022/01/19 11:41:58;;;;;;;40.65;26.80;;;5.50;85.30;;;;;;5033499;28;20104;-45
2022/01/19 11:44:33;;;;;;;41.85;29.88;;;5.50;85.40;;;;;;5011436;28;20548;-45
2022/01/19 11:47:18;;;;;;;41.20;30.73;;;5.40;85.50;;;;;;4995182;28;20033;-45
2022/01/19 11:49:55;;;;;;;40.58;30.13;;;5.40;85.60;;;;;;5012206;28;20030;-45
2022/01/19 11:52:26;;;;;;;41.72;30.33;;;5.40;85.70;;;;;;5011435;28;20184;-45
2022/01/19 11:55:13;;;;;;;44.45;30.60;;;5.40;85.60;;;;;;5012020;28;20034;-47
2022/01/19 11:57:40;;;;;;;48.97;32.08;;;5.40;85.70;;;;;;5012393;28;20084;-45
2022/01/19 12:00:08;;;;;;;43.65;29.83;;;5.40;85.70;;;;;;5012184;28;20042;-44
2022/01/19 12:02:37;;;;;;;45.30;31.23;;;5.40;85.90;;;;;;5011386;28;20181;-48
2022/01/19 12:05:07;;;;;;;45.10;33.27;;;5.40;86.10;;;;;;5011158;28;20041;-45
2022/01/19 12:07:53;;;;;;;45.88;31.77;;;5.40;86.20;;;;;;4995155;28;20353;-44
2022/01/19 12:10:21;;;;;;;48.97;32.60;;;5.40;86.20;;;;;;5011192;28;20033;-45
2022/01/19 12:16:31;;;;;;;47.90;32.90;;;5.40;86.20;;;;;;5008653;28;20108;-47
2022/01/19 12:19:20;;;;;;;45.95;32.45;;;5.40;86.20;;;;;;5026443;28;20044;-46
2022/01/19 12:22:05;;;;;;;46.00;30.90;;;5.80;86.70;;;;;;5032383;28;20536;-46
2022/01/19 12:24:44;;;;;;;50.05;33.03;;;5.90;86.60;;;;;;5032029;28;20032;-44
2022/01/19 12:27:12;;;;;;;50.92;32.90;;;6.00;85.90;;;;;;5033172;28;20017;-45
2022/01/19 12:29:48;;;;;;;49.80;32.83;;;6.00;85.00;;;;;;5032259;28;20029;-47
2022/01/19 12:32:16;;;;;;;53.38;34.10;;;6.20;85.20;;;;;;5033606;28;20155;-47
2022/01/19 12:35:11;;;;;;;47.58;32.47;;;6.10;84.90;;;;;;5032252;28;20447;-49
2022/01/19 12:37:42;;;;;;;49.47;34.97;;;6.00;85.20;;;;;;5028835;28;20443;-47
2022/01/19 12:40:24;;;;;;;50.03;32.90;;;6.00;85.40;;;;;;5032983;28;20027;-50
2022/01/19 12:42:59;;;;;;;49.38;34.05;;;6.00;85.20;;;;;;5033165;28;20102;-47
2022/01/19 12:45:35;;;;;;;49.38;34.58;;;6.00;85.20;;;;;;5015718;28;20025;-46
2022/01/19 12:48:05;;;;;;;48.38;35.17;;;5.90;85.40;;;;;;5032373;28;20069;-46
2022/01/19 12:50:37;;;;;;;;;;;5.90;85.60;;;;;;5033126;28;20168;-48
2022/01/19 12:53:24;;;;;;;50.35;34.85;;;5.90;85.60;;;;;;5033491;28;20289;-46
2022/01/19 12:55:54;;;;;;;52.60;34.15;;;5.80;85.90;;;;;;5033115;28;20022;-52
2022/01/19 12:58:27;;;;;;;47.38;34.13;;;5.80;85.90;;;;;;5031752;28;20363;-45
2022/01/19 13:00:56;;;;;;;52.80;34.90;;;5.70;85.90;;;;;;5032960;28;20134;-45
2022/01/19 13:03:27;;;;;;;49.83;34.97;;;5.70;86.00;;;;;;5031991;28;20469;-49
2022/01/19 13:06:05;;;;;;;47.08;34.10;;;5.70;86.00;;;;;;5032461;28;20127;-45
2022/01/19 13:08:34;;;;;;;51.40;34.00;;;5.60;86.30;;;;;;5032461;28;20017;-45
2022/01/19 13:11:08;;;;;;;50.65;32.78;;;5.70;86.30;;;;;;5032339;28;20479;-46
2022/01/19 13:13:54;;;;;;;53.88;33.90;;;5.70;86.40;;;;;;5032960;28;20115;-46
2022/01/19 13:17:02;;;;;;;51.42;34.97;;;5.60;86.40;;;;;;5032380;28;20585;-52
2022/01/19 13:19:30;;;;;;;45.13;32.50;;;5.60;86.40;;;;;;5021125;28;20140;-46
2022/01/19 13:22:04;;;;;;;48.55;32.38;;;5.60;86.50;;;;;;5032805;28;20048;-45
2022/01/19 13:24:34;;;;;;;56.85;35.70;;;5.50;86.70;;;;;;5030915;28;20025;-45
2022/01/19 13:27:05;;;;;;;49.28;32.42;;;5.50;86.70;;;;;;5032516;28;20644;-45
2022/01/19 13:29:38;;;;;;;55.75;35.00;;;5.50;86.90;;;;;;5034281;28;20112;-47
2022/01/19 13:32:06;;;;;;;52.90;34.45;;;5.50;86.90;;;;;;5037009;28;20018;-50
2022/01/19 13:35:04;;;;;;;57.42;38.13;;;5.50;87.20;;;;;;5036074;28;20034;-46
2022/01/19 13:38:02;;;;;;;56.28;38.40;;;5.40;87.30;;;;;;5035821;28;20059;-46
2022/01/19 13:40:32;;;;;;;55.58;35.92;;;5.40;87.50;;;;;;5035961;28;20108;-46
2022/01/19 13:43:08;;;;;;;62.75;37.17;;;5.40;87.50;;;;;;5035353;28;20038;-47
2022/01/19 13:48:29;;;;;;;62.15;38.38;;;5.40;87.90;;;;;;5036305;28;20033;-50
2022/01/19 13:51:11;;;;;;;58.47;36.38;;;5.30;87.90;;;;;;5035108;28;20113;-50
2022/01/19 13:53:42;;;;;;;55.72;37.63;;;5.30;88.00;;;;;;5023448;28;20044;-45
2022/01/19 13:56:11;;;;;;;62.95;38.83;;;5.30;88.00;;;;;;5033616;28;20105;-45
2022/01/19 13:58:48;;;;;;;59.10;41.37;;;5.20;88.20;;;;;;5035071;28;20057;-47
2022/01/19 14:01:20;;;;;;;67.38;41.60;;;5.30;88.30;;;;;;5034838;28;20033;-45
2022/01/19 14:03:51;;;;;;;60.72;39.13;;;5.20;88.20;;;;;;5034758;28;20446;-46
2022/01/19 14:06:28;;;;;;;63.63;40.65;;;5.30;88.20;;;;;;5035291;28;20037;-49
2022/01/19 14:09:14;;;;;;;67.68;41.60;;;5.30;88.10;;;;;;5036185;28;20293;-50
2022/01/19 14:11:48;;;;;;;62.03;38.53;;;5.30;88.10;;;;;;5034924;28;20480;-44